sensor_id;sensor_type;location;lat;lon;timestamp;P1;durP1;ratioP1;P2;durP2;ratioP2
63817;SDS011;53093;55.092;73.476;2022-12-04T00:01:23;38.38;;;10.68;;
63817;SDS011;53093;55.092;73.476;2022-12-04T00:03:57;37.50;;;11.23;;
63817;SDS011;53093;55.092;73.476;2022-12-04T00:06:24;41.78;;;11.40;;
63817;SDS011;53093;55.092;73.476;2022-12-04T00:08:52;43.63;;;11.90;;
63817;SDS011;53093;55.092;73.476;2022-12-04T00:11:25;33.08;;;10.95;;
63817;SDS011;53093;55.092;73.476;2022-12-04T00:14:02;36.70;;;11.05;;
63817;SDS011;53093;55.092;73.476;2022-12-04T00:16:32;41.25;;;12.40;;
63817;SDS011;53093;55.092;73.476;2022-12-04T00:19:04;48.47;;;13.80;;
63817;SDS011;53093;55.092;73.476;2022-12-04T00:21:31;34.50;;;11.23;;
63817;SDS011;53093;55.092;73.476;2022-12-04T00:23:58;48.80;;;12.50;;
63817;SDS011;53093;55.092;73.476;2022-12-04T00:26:26;37.80;;;11.50;;
63817;SDS011;53093;55.092;73.476;2022-12-04T00:28:54;37.70;;;11.77;;
63817;SDS011;53093;55.092;73.476;2022-12-04T00:31:22;44.28;;;12.60;;
63817;SDS011;53093;55.092;73.476;2022-12-04T00:33:54;34.70;;;11.43;;
63817;SDS011;53093;55.092;73.476;2022-12-04T00:36:31;44.95;;;11.95;;
63817;SDS011;53093;55.092;73.476;2022-12-04T00:38:58;38.30;;;12.30;;
63817;SDS011;53093;55.092;73.476;2022-12-04T00:41:27;40.55;;;10.73;;
63817;SDS011;53093;55.092;73.476;2022-12-04T00:43:54;29.77;;;9.63;;
63817;SDS011;53093;55.092;73.476;2022-12-04T00:46:21;34.97;;;11.45;;
63817;SDS011;53093;55.092;73.476;2022-12-04T00:48:48;50.38;;;13.32;;
63817;SDS011;53093;55.092;73.476;2022-12-04T00:51:17;34.33;;;11.43;;
63817;SDS011;53093;55.092;73.476;2022-12-04T00:53:44;45.95;;;11.63;;
63817;SDS011;53093;55.092;73.476;2022-12-04T00:56:15;37.67;;;10.80;;
63817;SDS011;53093;55.092;73.476;2022-12-04T00:58:42;38.40;;;10.20;;
63817;SDS011;53093;55.092;73.476;2022-12-04T01:01:11;41.58;;;11.75;;
63817;SDS011;53093;55.092;73.476;2022-12-04T01:03:38;40.95;;;11.05;;
63817;SDS011;53093;55.092;73.476;2022-12-04T01:08:45;38.60;;;11.00;;
63817;SDS011;53093;55.092;73.476;2022-12-04T01:11:12;41.25;;;10.80;;
63817;SDS011;53093;55.092;73.476;2022-12-04T01:13:39;36.58;;;11.80;;
63817;SDS011;53093;55.092;73.476;2022-12-04T01:16:06;37.40;;;12.13;;
63817;SDS011;53093;55.092;73.476;2022-12-04T01:18:33;41.08;;;11.75;;
63817;SDS011;53093;55.092;73.476;2022-12-04T01:21:00;41.22;;;11.60;;
63817;SDS011;53093;55.092;73.476;2022-12-04T01:23:27;31.23;;;11.13;;
63817;SDS011;53093;55.092;73.476;2022-12-04T01:25:55;34.38;;;10.98;;
63817;SDS011;53093;55.092;73.476;2022-12-04T01:28:30;26.40;;;9.18;;
63817;SDS011;53093;55.092;73.476;2022-12-04T01:33:34;32.65;;;9.23;;
63817;SDS011;53093;55.092;73.476;2022-12-04T01:36:02;24.80;;;9.18;;
63817;SDS011;53093;55.092;73.476;2022-12-04T01:38:29;25.63;;;8.02;;
63817;SDS011;53093;55.092;73.476;2022-12-04T01:40:56;28.17;;;9.60;;
63817;SDS011;53093;55.092;73.476;2022-12-04T01:43:24;27.65;;;10.30;;
63817;SDS011;53093;55.092;73.476;2022-12-04T01:45:52;25.52;;;9.70;;
63817;SDS011;53093;55.092;73.476;2022-12-04T01:50:54;27.45;;;8.85;;
63817;SDS011;53093;55.092;73.476;2022-12-04T01:53:25;23.30;;;8.15;;
63817;SDS011;53093;55.092;73.476;2022-12-04T01:55:56;25.30;;;8.57;;
63817;SDS011;53093;55.092;73.476;2022-12-04T01:58:26;29.73;;;8.52;;
63817;SDS011;53093;55.092;73.476;2022-12-04T02:00:55;27.75;;;9.20;;
63817;SDS011;53093;55.092;73.476;2022-12-04T02:03:24;27.85;;;9.88;;
63817;SDS011;53093;55.092;73.476;2022-12-04T02:05:51;27.92;;;9.80;;
63817;SDS011;53093;55.092;73.476;2022-12-04T02:08:18;34.72;;;11.10;;
63817;SDS011;53093;55.092;73.476;2022-12-04T02:18:32;21.73;;;7.88;;
63817;SDS011;53093;55.092;73.476;2022-12-04T02:21:04;26.42;;;7.88;;
63817;SDS011;53093;55.092;73.476;2022-12-04T02:29:28;15.13;;;5.82;;
63817;SDS011;53093;55.092;73.476;2022-12-04T02:37:07;24.60;;;6.35;;
63817;SDS011;53093;55.092;73.476;2022-12-04T02:42:03;12.73;;;3.88;;
63817;SDS011;53093;55.092;73.476;2022-12-04T02:44:34;12.63;;;4.88;;
63817;SDS011;53093;55.092;73.476;2022-12-04T02:47:03;18.77;;;5.07;;
63817;SDS011;53093;55.092;73.476;2022-12-04T02:49:41;12.27;;;4.75;;
63817;SDS011;53093;55.092;73.476;2022-12-04T02:52:11;13.02;;;5.22;;
63817;SDS011;53093;55.092;73.476;2022-12-04T02:54:42;13.75;;;4.82;;
63817;SDS011;53093;55.092;73.476;2022-12-04T02:57:12;15.68;;;6.15;;
63817;SDS011;53093;55.092;73.476;2022-12-04T02:59:41;24.45;;;6.68;;
63817;SDS011;53093;55.092;73.476;2022-12-04T03:02:11;51.47;;;14.45;;
63817;SDS011;53093;55.092;73.476;2022-12-04T03:04:40;43.25;;;14.18;;
63817;SDS011;53093;55.092;73.476;2022-12-04T03:07:15;30.25;;;8.45;;
63817;SDS011;53093;55.092;73.476;2022-12-04T03:09:55;21.30;;;6.97;;
63817;SDS011;53093;55.092;73.476;2022-12-04T03:12:25;23.65;;;6.63;;
63817;SDS011;53093;55.092;73.476;2022-12-04T03:17:57;17.05;;;6.32;;
63817;SDS011;53093;55.092;73.476;2022-12-04T03:20:31;21.90;;;7.32;;
63817;SDS011;53093;55.092;73.476;2022-12-04T03:23:02;23.55;;;8.45;;
63817;SDS011;53093;55.092;73.476;2022-12-04T03:25:34;36.88;;;9.88;;
63817;SDS011;53093;55.092;73.476;2022-12-04T03:28:06;38.03;;;9.63;;
63817;SDS011;53093;55.092;73.476;2022-12-04T03:30:43;33.38;;;9.32;;
63817;SDS011;53093;55.092;73.476;2022-12-04T03:33:12;21.38;;;7.55;;
63817;SDS011;53093;55.092;73.476;2022-12-04T03:36:02;22.77;;;7.28;;
63817;SDS011;53093;55.092;73.476;2022-12-04T03:41:12;27.25;;;8.82;;
63817;SDS011;53093;55.092;73.476;2022-12-04T03:43:49;42.85;;;13.35;;
63817;SDS011;53093;55.092;73.476;2022-12-04T03:46:25;20.60;;;7.45;;
63817;SDS011;53093;55.092;73.476;2022-12-04T03:53:57;30.60;;;10.07;;
63817;SDS011;53093;55.092;73.476;2022-12-04T03:57:02;22.95;;;6.15;;
63817;SDS011;53093;55.092;73.476;2022-12-04T03:59:22;29.25;;;7.65;;
63817;SDS011;53093;55.092;73.476;2022-12-04T04:01:51;23.52;;;7.70;;
63817;SDS011;53093;55.092;73.476;2022-12-04T04:04:25;35.10;;;8.48;;
63817;SDS011;53093;55.092;73.476;2022-12-04T04:06:54;31.03;;;9.57;;
63817;SDS011;53093;55.092;73.476;2022-12-04T04:09:23;30.15;;;9.63;;
63817;SDS011;53093;55.092;73.476;2022-12-04T04:12:02;22.17;;;8.77;;
63817;SDS011;53093;55.092;73.476;2022-12-04T04:17:21;38.92;;;11.98;;
63817;SDS011;53093;55.092;73.476;2022-12-04T04:20:14;38.67;;;11.35;;
63817;SDS011;53093;55.092;73.476;2022-12-04T04:23:04;43.00;;;12.77;;
63817;SDS011;53093;55.092;73.476;2022-12-04T04:25:50;46.97;;;13.85;;
63817;SDS011;53093;55.092;73.476;2022-12-04T04:28:28;44.90;;;13.05;;
63817;SDS011;53093;55.092;73.476;2022-12-04T04:31:44;57.33;;;15.25;;
63817;SDS011;53093;55.092;73.476;2022-12-04T04:36:22;73.13;;;20.95;;
63817;SDS011;53093;55.092;73.476;2022-12-04T04:39:01;72.25;;;20.17;;
63817;SDS011;53093;55.092;73.476;2022-12-04T04:41:41;115.03;;;35.03;;
63817;SDS011;53093;55.092;73.476;2022-12-04T04:44:24;136.38;;;33.83;;
63817;SDS011;53093;55.092;73.476;2022-12-04T04:46:53;57.72;;;18.27;;
63817;SDS011;53093;55.092;73.476;2022-12-04T04:49:22;58.35;;;19.85;;
63817;SDS011;53093;55.092;73.476;2022-12-04T04:51:56;54.28;;;18.90;;
63817;SDS011;53093;55.092;73.476;2022-12-04T04:54:23;61.25;;;17.73;;
63817;SDS011;53093;55.092;73.476;2022-12-04T04:56:51;51.53;;;17.45;;
63817;SDS011;53093;55.092;73.476;2022-12-04T04:59:18;57.72;;;17.23;;
63817;SDS011;53093;55.092;73.476;2022-12-04T05:01:45;35.35;;;13.00;;
63817;SDS011;53093;55.092;73.476;2022-12-04T05:04:12;42.42;;;14.05;;
63817;SDS011;53093;55.092;73.476;2022-12-04T05:06:39;47.05;;;14.27;;
63817;SDS011;53093;55.092;73.476;2022-12-04T05:09:06;43.30;;;14.07;;
63817;SDS011;53093;55.092;73.476;2022-12-04T05:11:33;43.67;;;13.23;;
63817;SDS011;53093;55.092;73.476;2022-12-04T05:14:00;45.70;;;13.98;;
63817;SDS011;53093;55.092;73.476;2022-12-04T05:16:27;39.90;;;12.85;;
63817;SDS011;53093;55.092;73.476;2022-12-04T05:18:54;34.17;;;12.30;;
63817;SDS011;53093;55.092;73.476;2022-12-04T05:21:39;42.88;;;12.15;;
63817;SDS011;53093;55.092;73.476;2022-12-04T05:24:17;34.70;;;11.13;;
63817;SDS011;53093;55.092;73.476;2022-12-04T05:26:54;36.85;;;11.50;;
63817;SDS011;53093;55.092;73.476;2022-12-04T05:29:21;40.15;;;14.32;;
63817;SDS011;53093;55.092;73.476;2022-12-04T05:31:48;44.33;;;11.98;;
63817;SDS011;53093;55.092;73.476;2022-12-04T05:34:14;39.90;;;12.35;;
63817;SDS011;53093;55.092;73.476;2022-12-04T05:36:46;35.63;;;11.75;;
63817;SDS011;53093;55.092;73.476;2022-12-04T05:39:13;34.53;;;10.68;;
63817;SDS011;53093;55.092;73.476;2022-12-04T05:41:40;37.03;;;12.05;;
63817;SDS011;53093;55.092;73.476;2022-12-04T05:44:11;33.25;;;10.98;;
63817;SDS011;53093;55.092;73.476;2022-12-04T05:46:39;40.30;;;11.40;;
63817;SDS011;53093;55.092;73.476;2022-12-04T05:49:06;36.42;;;10.98;;
63817;SDS011;53093;55.092;73.476;2022-12-04T05:51:33;37.65;;;11.35;;
63817;SDS011;53093;55.092;73.476;2022-12-04T05:54:00;38.92;;;11.85;;
63817;SDS011;53093;55.092;73.476;2022-12-04T05:56:27;39.65;;;11.88;;
63817;SDS011;53093;55.092;73.476;2022-12-04T05:58:54;33.20;;;10.90;;
63817;SDS011;53093;55.092;73.476;2022-12-04T06:01:31;40.85;;;11.80;;
63817;SDS011;53093;55.092;73.476;2022-12-04T06:03:58;40.20;;;12.68;;
63817;SDS011;53093;55.092;73.476;2022-12-04T06:06:25;42.30;;;11.95;;
63817;SDS011;53093;55.092;73.476;2022-12-04T06:08:53;32.72;;;9.73;;
63817;SDS011;53093;55.092;73.476;2022-12-04T06:11:22;43.42;;;12.73;;
63817;SDS011;53093;55.092;73.476;2022-12-04T06:13:55;35.92;;;11.90;;
63817;SDS011;53093;55.092;73.476;2022-12-04T06:16:23;37.70;;;12.27;;
63817;SDS011;53093;55.092;73.476;2022-12-04T06:19:00;39.88;;;12.45;;
63817;SDS011;53093;55.092;73.476;2022-12-04T06:21:29;33.10;;;12.43;;
63817;SDS011;53093;55.092;73.476;2022-12-04T06:23:56;42.72;;;12.35;;
63817;SDS011;53093;55.092;73.476;2022-12-04T06:26:23;39.42;;;12.00;;
63817;SDS011;53093;55.092;73.476;2022-12-04T06:28:54;43.10;;;13.70;;
63817;SDS011;53093;55.092;73.476;2022-12-04T06:31:32;45.65;;;13.63;;
63817;SDS011;53093;55.092;73.476;2022-12-04T06:34:01;49.13;;;14.27;;
63817;SDS011;53093;55.092;73.476;2022-12-04T06:36:28;48.40;;;15.90;;
63817;SDS011;53093;55.092;73.476;2022-12-04T06:39:04;43.50;;;13.90;;
63817;SDS011;53093;55.092;73.476;2022-12-04T06:41:35;45.78;;;14.23;;
63817;SDS011;53093;55.092;73.476;2022-12-04T06:44:02;48.42;;;14.60;;
63817;SDS011;53093;55.092;73.476;2022-12-04T06:46:30;44.33;;;11.82;;
63817;SDS011;53093;55.092;73.476;2022-12-04T06:48:57;37.20;;;11.38;;
63817;SDS011;53093;55.092;73.476;2022-12-04T06:51:31;36.53;;;12.60;;
63817;SDS011;53093;55.092;73.476;2022-12-04T06:53:58;40.55;;;11.05;;
63817;SDS011;53093;55.092;73.476;2022-12-04T06:56:26;41.28;;;12.77;;
63817;SDS011;53093;55.092;73.476;2022-12-04T06:58:55;39.38;;;11.70;;
63817;SDS011;53093;55.092;73.476;2022-12-04T07:01:24;29.08;;;10.43;;
63817;SDS011;53093;55.092;73.476;2022-12-04T07:03:51;32.78;;;12.40;;
63817;SDS011;53093;55.092;73.476;2022-12-04T07:08:46;37.95;;;11.25;;
63817;SDS011;53093;55.092;73.476;2022-12-04T07:11:19;38.67;;;11.07;;
63817;SDS011;53093;55.092;73.476;2022-12-04T07:13:47;38.58;;;12.15;;
63817;SDS011;53093;55.092;73.476;2022-12-04T07:16:15;40.28;;;11.55;;
63817;SDS011;53093;55.092;73.476;2022-12-04T07:18:42;34.50;;;12.23;;
63817;SDS011;53093;55.092;73.476;2022-12-04T07:21:21;31.38;;;10.50;;
63817;SDS011;53093;55.092;73.476;2022-12-04T07:23:48;48.08;;;12.50;;
63817;SDS011;53093;55.092;73.476;2022-12-04T07:26:16;35.25;;;12.65;;
63817;SDS011;53093;55.092;73.476;2022-12-04T07:28:49;42.53;;;12.15;;
63817;SDS011;53093;55.092;73.476;2022-12-04T07:31:17;32.85;;;12.27;;
63817;SDS011;53093;55.092;73.476;2022-12-04T07:33:44;38.33;;;13.15;;
63817;SDS011;53093;55.092;73.476;2022-12-04T07:36:13;36.05;;;12.52;;
63817;SDS011;53093;55.092;73.476;2022-12-04T07:38:40;39.70;;;12.60;;
63817;SDS011;53093;55.092;73.476;2022-12-04T07:41:08;36.92;;;12.10;;
63817;SDS011;53093;55.092;73.476;2022-12-04T07:43:36;36.75;;;12.95;;
63817;SDS011;53093;55.092;73.476;2022-12-04T07:46:14;36.13;;;13.15;;
63817;SDS011;53093;55.092;73.476;2022-12-04T07:48:53;39.35;;;12.60;;
63817;SDS011;53093;55.092;73.476;2022-12-04T07:51:22;36.63;;;12.45;;
63817;SDS011;53093;55.092;73.476;2022-12-04T07:53:59;48.00;;;14.52;;
63817;SDS011;53093;55.092;73.476;2022-12-04T07:56:26;43.20;;;14.43;;
63817;SDS011;53093;55.092;73.476;2022-12-04T07:58:53;38.15;;;14.05;;
63817;SDS011;53093;55.092;73.476;2022-12-04T08:01:21;36.85;;;13.30;;
63817;SDS011;53093;55.092;73.476;2022-12-04T08:03:49;36.70;;;13.20;;
63817;SDS011;53093;55.092;73.476;2022-12-04T08:06:17;38.38;;;11.82;;
63817;SDS011;53093;55.092;73.476;2022-12-04T08:08:44;33.92;;;11.30;;
63817;SDS011;53093;55.092;73.476;2022-12-04T08:11:13;32.53;;;11.48;;
63817;SDS011;53093;55.092;73.476;2022-12-04T08:13:40;39.00;;;13.73;;
63817;SDS011;53093;55.092;73.476;2022-12-04T08:16:12;35.00;;;11.45;;
63817;SDS011;53093;55.092;73.476;2022-12-04T08:18:40;29.77;;;10.65;;
63817;SDS011;53093;55.092;73.476;2022-12-04T08:21:09;30.35;;;11.23;;
63817;SDS011;53093;55.092;73.476;2022-12-04T08:23:36;34.20;;;13.38;;
63817;SDS011;53093;55.092;73.476;2022-12-04T08:26:03;31.20;;;11.27;;
63817;SDS011;53093;55.092;73.476;2022-12-04T08:28:31;29.10;;;10.05;;
63817;SDS011;53093;55.092;73.476;2022-12-04T08:31:04;30.85;;;11.43;;
63817;SDS011;53093;55.092;73.476;2022-12-04T08:33:32;32.70;;;10.48;;
63817;SDS011;53093;55.092;73.476;2022-12-04T08:35:59;28.85;;;9.43;;
63817;SDS011;53093;55.092;73.476;2022-12-04T08:38:26;32.63;;;10.93;;
63817;SDS011;53093;55.092;73.476;2022-12-04T08:40:53;30.25;;;10.60;;
63817;SDS011;53093;55.092;73.476;2022-12-04T08:43:29;31.75;;;11.70;;
63817;SDS011;53093;55.092;73.476;2022-12-04T08:45:57;62.22;;;19.90;;
63817;SDS011;53093;55.092;73.476;2022-12-04T08:48:34;67.03;;;22.52;;
63817;SDS011;53093;55.092;73.476;2022-12-04T08:51:01;34.05;;;12.38;;
63817;SDS011;53093;55.092;73.476;2022-12-04T08:53:30;31.30;;;10.25;;
63817;SDS011;53093;55.092;73.476;2022-12-04T08:55:59;30.52;;;10.13;;
63817;SDS011;53093;55.092;73.476;2022-12-04T08:58:26;31.60;;;10.48;;
63817;SDS011;53093;55.092;73.476;2022-12-04T09:00:53;28.15;;;9.32;;
63817;SDS011;53093;55.092;73.476;2022-12-04T09:03:20;29.13;;;9.80;;
63817;SDS011;53093;55.092;73.476;2022-12-04T09:05:47;31.90;;;10.18;;
63817;SDS011;53093;55.092;73.476;2022-12-04T09:08:15;32.63;;;10.20;;
63817;SDS011;53093;55.092;73.476;2022-12-04T09:10:42;31.30;;;10.35;;
63817;SDS011;53093;55.092;73.476;2022-12-04T09:13:13;37.50;;;11.32;;
63817;SDS011;53093;55.092;73.476;2022-12-04T09:15:40;30.65;;;11.07;;
63817;SDS011;53093;55.092;73.476;2022-12-04T09:18:08;42.50;;;12.80;;
63817;SDS011;53093;55.092;73.476;2022-12-04T09:20:35;35.17;;;12.25;;
63817;SDS011;53093;55.092;73.476;2022-12-04T09:23:03;38.05;;;13.50;;
63817;SDS011;53093;55.092;73.476;2022-12-04T09:25:30;40.58;;;15.38;;
63817;SDS011;53093;55.092;73.476;2022-12-04T09:27:57;52.10;;;19.25;;
63817;SDS011;53093;55.092;73.476;2022-12-04T09:30:24;52.42;;;22.48;;
63817;SDS011;53093;55.092;73.476;2022-12-04T09:32:56;53.88;;;21.40;;
63817;SDS011;53093;55.092;73.476;2022-12-04T09:35:23;53.28;;;20.88;;
63817;SDS011;53093;55.092;73.476;2022-12-04T09:37:50;61.20;;;20.05;;
63817;SDS011;53093;55.092;73.476;2022-12-04T09:40:21;53.30;;;19.85;;
63817;SDS011;53093;55.092;73.476;2022-12-04T09:43:01;45.75;;;17.88;;
63817;SDS011;53093;55.092;73.476;2022-12-04T09:45:31;48.03;;;18.50;;
63817;SDS011;53093;55.092;73.476;2022-12-04T09:47:59;48.70;;;17.38;;
63817;SDS011;53093;55.092;73.476;2022-12-04T09:50:38;41.92;;;17.60;;
63817;SDS011;53093;55.092;73.476;2022-12-04T09:53:10;46.50;;;18.45;;
63817;SDS011;53093;55.092;73.476;2022-12-04T09:55:58;41.20;;;16.52;;
63817;SDS011;53093;55.092;73.476;2022-12-04T10:01:05;53.80;;;18.50;;
63817;SDS011;53093;55.092;73.476;2022-12-04T10:03:42;63.65;;;22.00;;
63817;SDS011;53093;55.092;73.476;2022-12-04T10:06:33;225.48;;;74.45;;
63817;SDS011;53093;55.092;73.476;2022-12-04T10:09:05;424.73;;;149.90;;
63817;SDS011;53093;55.092;73.476;2022-12-04T10:14:21;125.63;;;50.70;;
63817;SDS011;53093;55.092;73.476;2022-12-04T10:24:53;53.53;;;19.25;;
63817;SDS011;53093;55.092;73.476;2022-12-04T10:29:49;55.63;;;18.20;;
63817;SDS011;53093;55.092;73.476;2022-12-04T10:32:22;63.38;;;20.60;;
63817;SDS011;53093;55.092;73.476;2022-12-04T10:34:51;83.85;;;26.67;;
63817;SDS011;53093;55.092;73.476;2022-12-04T10:37:19;82.53;;;28.20;;
63817;SDS011;53093;55.092;73.476;2022-12-04T10:44:44;53.90;;;20.65;;
63817;SDS011;53093;55.092;73.476;2022-12-04T10:47:11;61.38;;;21.20;;
63817;SDS011;53093;55.092;73.476;2022-12-04T10:49:39;57.00;;;18.42;;
63817;SDS011;53093;55.092;73.476;2022-12-04T10:52:08;67.63;;;23.00;;
63817;SDS011;53093;55.092;73.476;2022-12-04T10:57:09;67.45;;;23.35;;
63817;SDS011;53093;55.092;73.476;2022-12-04T10:59:53;64.07;;;22.17;;
63817;SDS011;53093;55.092;73.476;2022-12-04T11:02:32;57.08;;;18.98;;
63817;SDS011;53093;55.092;73.476;2022-12-04T11:05:00;54.83;;;19.42;;
63817;SDS011;53093;55.092;73.476;2022-12-04T11:07:29;73.30;;;19.63;;
63817;SDS011;53093;55.092;73.476;2022-12-04T11:10:17;66.68;;;21.92;;
63817;SDS011;53093;55.092;73.476;2022-12-04T11:12:52;62.63;;;20.45;;
63817;SDS011;53093;55.092;73.476;2022-12-04T11:15:29;85.50;;;24.38;;
63817;SDS011;53093;55.092;73.476;2022-12-04T11:18:12;79.75;;;25.25;;
63817;SDS011;53093;55.092;73.476;2022-12-04T11:21:01;67.40;;;22.73;;
63817;SDS011;53093;55.092;73.476;2022-12-04T11:23:31;57.55;;;21.42;;
63817;SDS011;53093;55.092;73.476;2022-12-04T11:25:58;51.40;;;18.83;;
63817;SDS011;53093;55.092;73.476;2022-12-04T11:28:36;57.00;;;18.77;;
63817;SDS011;53093;55.092;73.476;2022-12-04T11:31:06;57.28;;;17.80;;
63817;SDS011;53093;55.092;73.476;2022-12-04T11:33:39;45.90;;;16.80;;
63817;SDS011;53093;55.092;73.476;2022-12-04T11:36:21;49.75;;;16.15;;
63817;SDS011;53093;55.092;73.476;2022-12-04T11:38:49;51.38;;;16.92;;
63817;SDS011;53093;55.092;73.476;2022-12-04T11:41:27;49.00;;;16.58;;
63817;SDS011;53093;55.092;73.476;2022-12-04T11:43:56;57.15;;;16.67;;
63817;SDS011;53093;55.092;73.476;2022-12-04T11:46:24;52.20;;;17.35;;
63817;SDS011;53093;55.092;73.476;2022-12-04T11:48:53;58.10;;;17.98;;
63817;SDS011;53093;55.092;73.476;2022-12-04T11:51:39;57.05;;;18.65;;
63817;SDS011;53093;55.092;73.476;2022-12-04T11:56:39;54.13;;;18.25;;
63817;SDS011;53093;55.092;73.476;2022-12-04T12:04:37;48.85;;;15.95;;
63817;SDS011;53093;55.092;73.476;2022-12-04T12:12:25;51.28;;;16.25;;
63817;SDS011;53093;55.092;73.476;2022-12-04T12:15:04;50.33;;;15.60;;
63817;SDS011;53093;55.092;73.476;2022-12-04T12:26:03;50.22;;;15.65;;
63817;SDS011;53093;55.092;73.476;2022-12-04T12:29:16;58.97;;;17.25;;
63817;SDS011;53093;55.092;73.476;2022-12-04T12:34:35;55.70;;;18.08;;
63817;SDS011;53093;55.092;73.476;2022-12-04T12:39:49;68.95;;;18.83;;
63817;SDS011;53093;55.092;73.476;2022-12-04T12:42:24;61.00;;;16.65;;
63817;SDS011;53093;55.092;73.476;2022-12-04T12:44:57;59.65;;;19.02;;
63817;SDS011;53093;55.092;73.476;2022-12-04T12:47:26;56.28;;;18.50;;
63817;SDS011;53093;55.092;73.476;2022-12-04T12:52:58;74.53;;;21.40;;
63817;SDS011;53093;55.092;73.476;2022-12-04T12:55:40;60.42;;;20.50;;
63817;SDS011;53093;55.092;73.476;2022-12-04T13:03:48;65.82;;;22.33;;
63817;SDS011;53093;55.092;73.476;2022-12-04T13:06:16;58.97;;;19.13;;
63817;SDS011;53093;55.092;73.476;2022-12-04T13:08:53;53.67;;;18.05;;
63817;SDS011;53093;55.092;73.476;2022-12-04T13:11:22;46.10;;;15.50;;
63817;SDS011;53093;55.092;73.476;2022-12-04T13:13:51;41.88;;;15.55;;
63817;SDS011;53093;55.092;73.476;2022-12-04T13:24:44;45.85;;;13.52;;
63817;SDS011;53093;55.092;73.476;2022-12-04T13:29:43;33.92;;;11.95;;
63817;SDS011;53093;55.092;73.476;2022-12-04T13:45:44;43.70;;;14.82;;
63817;SDS011;53093;55.092;73.476;2022-12-04T13:48:31;52.80;;;16.70;;
63817;SDS011;53093;55.092;73.476;2022-12-04T13:51:00;46.70;;;14.75;;
63817;SDS011;53093;55.092;73.476;2022-12-04T13:53:37;42.50;;;13.57;;
63817;SDS011;53093;55.092;73.476;2022-12-04T13:56:06;43.95;;;14.95;;
63817;SDS011;53093;55.092;73.476;2022-12-04T13:58:57;39.95;;;14.52;;
63817;SDS011;53093;55.092;73.476;2022-12-04T14:01:27;58.28;;;15.52;;
63817;SDS011;53093;55.092;73.476;2022-12-04T14:04:06;43.50;;;14.82;;
63817;SDS011;53093;55.092;73.476;2022-12-04T14:06:40;54.67;;;18.58;;
63817;SDS011;53093;55.092;73.476;2022-12-04T14:09:17;51.90;;;16.17;;
63817;SDS011;53093;55.092;73.476;2022-12-04T14:11:47;57.22;;;16.65;;
63817;SDS011;53093;55.092;73.476;2022-12-04T14:14:20;48.17;;;16.00;;
63817;SDS011;53093;55.092;73.476;2022-12-04T14:16:50;53.30;;;16.20;;
63817;SDS011;53093;55.092;73.476;2022-12-04T14:19:50;46.28;;;14.65;;
63817;SDS011;53093;55.092;73.476;2022-12-04T14:22:27;53.50;;;15.18;;
63817;SDS011;53093;55.092;73.476;2022-12-04T14:25:19;46.03;;;14.20;;
63817;SDS011;53093;55.092;73.476;2022-12-04T14:27:47;35.55;;;12.40;;
63817;SDS011;53093;55.092;73.476;2022-12-04T14:30:28;33.92;;;12.40;;
63817;SDS011;53093;55.092;73.476;2022-12-04T14:33:19;33.05;;;11.18;;
63817;SDS011;53093;55.092;73.476;2022-12-04T14:36:08;67.13;;;16.02;;
63817;SDS011;53093;55.092;73.476;2022-12-04T14:38:47;61.70;;;17.23;;
63817;SDS011;53093;55.092;73.476;2022-12-04T14:41:22;44.47;;;15.95;;
63817;SDS011;53093;55.092;73.476;2022-12-04T14:43:49;40.38;;;12.32;;
63817;SDS011;53093;55.092;73.476;2022-12-04T14:46:32;36.55;;;12.50;;
63817;SDS011;53093;55.092;73.476;2022-12-04T14:49:17;36.10;;;11.90;;
63817;SDS011;53093;55.092;73.476;2022-12-04T14:51:58;37.28;;;10.63;;
63817;SDS011;53093;55.092;73.476;2022-12-04T14:59:58;37.65;;;11.52;;
63817;SDS011;53093;55.092;73.476;2022-12-04T15:02:33;36.15;;;13.18;;
63817;SDS011;53093;55.092;73.476;2022-12-04T15:05:11;43.08;;;12.32;;
63817;SDS011;53093;55.092;73.476;2022-12-04T15:07:47;41.30;;;14.10;;
63817;SDS011;53093;55.092;73.476;2022-12-04T15:10:19;44.05;;;14.07;;
63817;SDS011;53093;55.092;73.476;2022-12-04T15:13:04;36.42;;;12.85;;
63817;SDS011;53093;55.092;73.476;2022-12-04T15:15:31;45.70;;;14.02;;
63817;SDS011;53093;55.092;73.476;2022-12-04T15:18:10;48.92;;;13.90;;
63817;SDS011;53093;55.092;73.476;2022-12-04T15:20:47;38.65;;;10.82;;
63817;SDS011;53093;55.092;73.476;2022-12-04T15:25:49;33.45;;;10.93;;
63817;SDS011;53093;55.092;73.476;2022-12-04T15:34:00;32.55;;;9.82;;
63817;SDS011;53093;55.092;73.476;2022-12-04T15:39:11;21.60;;;6.97;;
63817;SDS011;53093;55.092;73.476;2022-12-04T15:41:39;32.70;;;8.70;;
63817;SDS011;53093;55.092;73.476;2022-12-04T15:44:48;32.75;;;8.75;;
63817;SDS011;53093;55.092;73.476;2022-12-04T15:47:14;30.30;;;9.20;;
63817;SDS011;53093;55.092;73.476;2022-12-04T15:49:52;21.73;;;7.70;;
63817;SDS011;53093;55.092;73.476;2022-12-04T15:52:20;29.02;;;9.10;;
63817;SDS011;53093;55.092;73.476;2022-12-04T15:54:49;22.52;;;7.63;;
63817;SDS011;53093;55.092;73.476;2022-12-04T16:00:06;31.05;;;8.13;;
63817;SDS011;53093;55.092;73.476;2022-12-04T16:02:34;15.85;;;6.05;;
63817;SDS011;53093;55.092;73.476;2022-12-04T16:12:55;11.95;;;5.22;;
63817;SDS011;53093;55.092;73.476;2022-12-04T16:15:22;22.77;;;6.90;;
63817;SDS011;53093;55.092;73.476;2022-12-04T16:17:50;21.52;;;6.43;;
63817;SDS011;53093;55.092;73.476;2022-12-04T16:20:27;19.17;;;6.63;;
63817;SDS011;53093;55.092;73.476;2022-12-04T16:22:54;24.40;;;8.48;;
63817;SDS011;53093;55.092;73.476;2022-12-04T16:25:25;18.35;;;7.40;;
63817;SDS011;53093;55.092;73.476;2022-12-04T16:27:52;20.15;;;6.90;;
63817;SDS011;53093;55.092;73.476;2022-12-04T16:30:30;20.33;;;7.45;;
63817;SDS011;53093;55.092;73.476;2022-12-04T16:32:58;23.77;;;8.18;;
63817;SDS011;53093;55.092;73.476;2022-12-04T16:35:25;22.73;;;6.70;;
63817;SDS011;53093;55.092;73.476;2022-12-04T16:37:52;18.98;;;6.90;;
63817;SDS011;53093;55.092;73.476;2022-12-04T16:40:19;21.95;;;7.28;;
63817;SDS011;53093;55.092;73.476;2022-12-04T16:42:46;26.70;;;7.20;;
63817;SDS011;53093;55.092;73.476;2022-12-04T16:45:23;23.73;;;7.78;;
63817;SDS011;53093;55.092;73.476;2022-12-04T16:48:01;18.45;;;6.18;;
63817;SDS011;53093;55.092;73.476;2022-12-04T16:50:28;22.05;;;7.30;;
63817;SDS011;53093;55.092;73.476;2022-12-04T16:52:54;18.95;;;6.90;;
63817;SDS011;53093;55.092;73.476;2022-12-04T16:55:32;21.88;;;7.80;;
63817;SDS011;53093;55.092;73.476;2022-12-04T16:58:09;19.73;;;6.97;;
63817;SDS011;53093;55.092;73.476;2022-12-04T17:00:53;22.70;;;6.93;;
63817;SDS011;53093;55.092;73.476;2022-12-04T17:03:31;23.00;;;6.18;;
63817;SDS011;53093;55.092;73.476;2022-12-04T17:06:04;21.13;;;7.65;;
63817;SDS011;53093;55.092;73.476;2022-12-04T17:08:31;19.13;;;6.82;;
63817;SDS011;53093;55.092;73.476;2022-12-04T17:10:58;23.10;;;7.53;;
63817;SDS011;53093;55.092;73.476;2022-12-04T17:13:31;18.27;;;6.75;;
63817;SDS011;53093;55.092;73.476;2022-12-04T17:16:08;28.77;;;6.97;;